sensor_id;sensor_type;location;lat;lon;timestamp;temperature;humidity
73576;DHT22;61859;49.204;8.140;2024-01-15T00:02:12;-3.30;94.40
73576;DHT22;61859;49.204;8.140;2024-01-15T00:04:41;-3.10;94.30
73576;DHT22;61859;49.204;8.140;2024-01-15T00:07:07;-3.20;94.20
73576;DHT22;61859;49.204;8.140;2024-01-15T00:09:33;-3.00;94.00
73576;DHT22;61859;49.204;8.140;2024-01-15T00:11:59;-3.00;93.90
73576;DHT22;61859;49.204;8.140;2024-01-15T00:14:25;-3.10;93.60
73576;DHT22;61859;49.204;8.140;2024-01-15T00:16:50;-3.00;93.30
73576;DHT22;61859;49.204;8.140;2024-01-15T00:19:23;-2.80;93.20
73576;DHT22;61859;49.204;8.140;2024-01-15T00:21:49;-2.90;93.10
73576;DHT22;61859;49.204;8.140;2024-01-15T00:24:15;-2.80;93.00
73576;DHT22;61859;49.204;8.140;2024-01-15T00:26:41;-2.90;93.00
73576;DHT22;61859;49.204;8.140;2024-01-15T00:29:07;-2.80;92.80
73576;DHT22;61859;49.204;8.140;2024-01-15T00:31:33;-2.70;92.70
73576;DHT22;61859;49.204;8.140;2024-01-15T00:33:58;-2.70;92.60
73576;DHT22;61859;49.204;8.140;2024-01-15T00:36:24;-2.80;92.70
73576;DHT22;61859;49.204;8.140;2024-01-15T00:38:49;-2.70;92.60
73576;DHT22;61859;49.204;8.140;2024-01-15T00:41:15;-2.60;92.60
73576;DHT22;61859;49.204;8.140;2024-01-15T00:43:41;-2.60;92.30
73576;DHT22;61859;49.204;8.140;2024-01-15T00:46:06;-2.60;92.30
73576;DHT22;61859;49.204;8.140;2024-01-15T00:48:32;-2.80;92.20
73576;DHT22;61859;49.204;8.140;2024-01-15T00:50:58;-2.70;92.30
73576;DHT22;61859;49.204;8.140;2024-01-15T00:53:23;-2.80;92.30
73576;DHT22;61859;49.204;8.140;2024-01-15T00:55:49;-2.80;92.40
73576;DHT22;61859;49.204;8.140;2024-01-15T00:58:15;-2.80;92.60
73576;DHT22;61859;49.204;8.140;2024-01-15T01:00:41;-2.80;92.60
73576;DHT22;61859;49.204;8.140;2024-01-15T01:03:07;-2.90;92.80
73576;DHT22;61859;49.204;8.140;2024-01-15T01:05:33;-2.90;93.10
73576;DHT22;61859;49.204;8.140;2024-01-15T01:07:59;-3.00;93.20
73576;DHT22;61859;49.204;8.140;2024-01-15T01:10:25;-3.00;93.50
73576;DHT22;61859;49.204;8.140;2024-01-15T01:12:50;-3.10;93.80
73576;DHT22;61859;49.204;8.140;2024-01-15T01:15:16;-3.00;93.90
73576;DHT22;61859;49.204;8.140;2024-01-15T01:17:42;-3.10;94.00
73576;DHT22;61859;49.204;8.140;2024-01-15T01:20:08;-3.10;94.00
73576;DHT22;61859;49.204;8.140;2024-01-15T01:22:34;-3.10;93.90
73576;DHT22;61859;49.204;8.140;2024-01-15T01:25:00;-3.00;94.00
73576;DHT22;61859;49.204;8.140;2024-01-15T01:27:26;-3.00;94.10
73576;DHT22;61859;49.204;8.140;2024-01-15T01:29:51;-2.90;94.10
73576;DHT22;61859;49.204;8.140;2024-01-15T01:32:17;-2.90;94.20
73576;DHT22;61859;49.204;8.140;2024-01-15T01:34:42;-3.00;94.20
73576;DHT22;61859;49.204;8.140;2024-01-15T01:37:09;-2.90;94.30
73576;DHT22;61859;49.204;8.140;2024-01-15T01:39:35;-3.00;94.40
73576;DHT22;61859;49.204;8.140;2024-01-15T01:42:00;-3.00;94.40
73576;DHT22;61859;49.204;8.140;2024-01-15T01:44:26;-3.00;94.40
73576;DHT22;61859;49.204;8.140;2024-01-15T01:46:52;-2.80;94.30
73576;DHT22;61859;49.204;8.140;2024-01-15T01:49:18;-2.80;94.30
73576;DHT22;61859;49.204;8.140;2024-01-15T01:51:44;-2.70;94.10
73576;DHT22;61859;49.204;8.140;2024-01-15T01:54:10;-2.70;94.20
73576;DHT22;61859;49.204;8.140;2024-01-15T01:56:40;-2.70;94.10
73576;DHT22;61859;49.204;8.140;2024-01-15T01:59:06;-2.80;94.10
73576;DHT22;61859;49.204;8.140;2024-01-15T02:01:33;-2.70;94.10
73576;DHT22;61859;49.204;8.140;2024-01-15T02:04:00;-2.60;94.30
73576;DHT22;61859;49.204;8.140;2024-01-15T02:06:25;-2.70;94.20
73576;DHT22;61859;49.204;8.140;2024-01-15T02:08:51;-2.90;94.30
73576;DHT22;61859;49.204;8.140;2024-01-15T02:11:17;-2.70;94.30
73576;DHT22;61859;49.204;8.140;2024-01-15T02:13:42;-2.70;94.20
73576;DHT22;61859;49.204;8.140;2024-01-15T02:16:08;-2.50;94.10
73576;DHT22;61859;49.204;8.140;2024-01-15T02:18:43;-2.50;94.20
73576;DHT22;61859;49.204;8.140;2024-01-15T02:21:10;-2.60;94.20
73576;DHT22;61859;49.204;8.140;2024-01-15T02:23:36;-2.50;93.70
73576;DHT22;61859;49.204;8.140;2024-01-15T02:26:02;-2.50;93.90
73576;DHT22;61859;49.204;8.140;2024-01-15T02:28:27;-2.60;94.00
73576;DHT22;61859;49.204;8.140;2024-01-15T02:30:53;-2.40;94.10
73576;DHT22;61859;49.204;8.140;2024-01-15T02:33:19;-2.50;94.30
73576;DHT22;61859;49.204;8.140;2024-01-15T02:35:44;-2.70;94.20
73576;DHT22;61859;49.204;8.140;2024-01-15T02:38:11;-2.60;94.20
73576;DHT22;61859;49.204;8.140;2024-01-15T02:40:38;-2.50;94.20
73576;DHT22;61859;49.204;8.140;2024-01-15T02:43:04;-2.60;94.40
73576;DHT22;61859;49.204;8.140;2024-01-15T02:45:29;-2.10;94.40
73576;DHT22;61859;49.204;8.140;2024-01-15T02:47:55;-2.50;94.20
73576;DHT22;61859;49.204;8.140;2024-01-15T02:50:21;-2.50;94.20
73576;DHT22;61859;49.204;8.140;2024-01-15T02:52:46;-2.50;94.20
73576;DHT22;61859;49.204;8.140;2024-01-15T02:55:12;-2.30;94.40
73576;DHT22;61859;49.204;8.140;2024-01-15T02:57:37;-2.40;94.30
73576;DHT22;61859;49.204;8.140;2024-01-15T03:00:03;-2.40;94.30
73576;DHT22;61859;49.204;8.140;2024-01-15T03:02:29;-2.40;94.20
73576;DHT22;61859;49.204;8.140;2024-01-15T03:04:57;-2.60;94.40
73576;DHT22;61859;49.204;8.140;2024-01-15T03:07:22;-2.40;94.30
73576;DHT22;61859;49.204;8.140;2024-01-15T03:09:48;-2.40;94.20
73576;DHT22;61859;49.204;8.140;2024-01-15T03:12:13;-2.40;94.20
73576;DHT22;61859;49.204;8.140;2024-01-15T03:14:39;-2.50;94.40
73576;DHT22;61859;49.204;8.140;2024-01-15T03:17:04;-2.40;94.30
73576;DHT22;61859;49.204;8.140;2024-01-15T03:19:30;-2.40;94.30
73576;DHT22;61859;49.204;8.140;2024-01-15T03:21:56;-2.40;94.40
73576;DHT22;61859;49.204;8.140;2024-01-15T03:24:22;-2.30;94.40
73576;DHT22;61859;49.204;8.140;2024-01-15T03:26:47;-2.30;94.40
73576;DHT22;61859;49.204;8.140;2024-01-15T03:29:13;-2.40;94.50
73576;DHT22;61859;49.204;8.140;2024-01-15T03:31:38;-2.20;94.70
73576;DHT22;61859;49.204;8.140;2024-01-15T03:34:04;-2.30;94.60
73576;DHT22;61859;49.204;8.140;2024-01-15T03:36:29;-2.30;94.50
73576;DHT22;61859;49.204;8.140;2024-01-15T03:38:55;-2.40;94.60
73576;DHT22;61859;49.204;8.140;2024-01-15T03:41:20;-2.30;94.60
73576;DHT22;61859;49.204;8.140;2024-01-15T03:43:46;-2.20;94.70
73576;DHT22;61859;49.204;8.140;2024-01-15T03:46:11;-2.30;94.60
73576;DHT22;61859;49.204;8.140;2024-01-15T03:48:37;-2.30;94.70
73576;DHT22;61859;49.204;8.140;2024-01-15T03:51:03;-2.20;94.70
73576;DHT22;61859;49.204;8.140;2024-01-15T03:53:29;-2.40;94.90
73576;DHT22;61859;49.204;8.140;2024-01-15T03:55:54;-2.20;94.80
73576;DHT22;61859;49.204;8.140;2024-01-15T03:58:20;-2.40;94.90
73576;DHT22;61859;49.204;8.140;2024-01-15T04:00:45;-2.30;94.90
73576;DHT22;61859;49.204;8.140;2024-01-15T04:03:11;-2.20;94.90
73576;DHT22;61859;49.204;8.140;2024-01-15T04:05:37;-2.20;94.90
73576;DHT22;61859;49.204;8.140;2024-01-15T04:08:03;-2.30;95.00
73576;DHT22;61859;49.204;8.140;2024-01-15T04:10:29;-2.30;95.10
73576;DHT22;61859;49.204;8.140;2024-01-15T04:12:54;-2.40;95.20
73576;DHT22;61859;49.204;8.140;2024-01-15T04:15:20;-2.20;95.10
73576;DHT22;61859;49.204;8.140;2024-01-15T04:17:45;-2.10;95.30
73576;DHT22;61859;49.204;8.140;2024-01-15T04:20:11;-2.30;95.40
73576;DHT22;61859;49.204;8.140;2024-01-15T04:22:37;-2.30;95.50
73576;DHT22;61859;49.204;8.140;2024-01-15T04:25:03;-2.20;95.50
73576;DHT22;61859;49.204;8.140;2024-01-15T04:27:29;-2.20;95.50
73576;DHT22;61859;49.204;8.140;2024-01-15T04:29:54;-2.10;95.80
73576;DHT22;61859;49.204;8.140;2024-01-15T04:32:20;-2.20;96.00
73576;DHT22;61859;49.204;8.140;2024-01-15T04:34:45;-2.00;96.00
73576;DHT22;61859;49.204;8.140;2024-01-15T04:37:11;-2.10;96.10
73576;DHT22;61859;49.204;8.140;2024-01-15T04:39:38;-2.00;96.20
73576;DHT22;61859;49.204;8.140;2024-01-15T04:42:04;-2.00;96.40
73576;DHT22;61859;49.204;8.140;2024-01-15T04:44:29;-2.10;96.10
73576;DHT22;61859;49.204;8.140;2024-01-15T04:46:55;-2.10;96.10
73576;DHT22;61859;49.204;8.140;2024-01-15T04:49:20;-1.90;96.20
73576;DHT22;61859;49.204;8.140;2024-01-15T04:51:46;-2.00;96.30
73576;DHT22;61859;49.204;8.140;2024-01-15T04:54:12;-1.90;96.10
73576;DHT22;61859;49.204;8.140;2024-01-15T04:56:37;-1.80;95.90
73576;DHT22;61859;49.204;8.140;2024-01-15T04:59:03;-1.90;95.50
73576;DHT22;61859;49.204;8.140;2024-01-15T05:01:32;-1.90;95.40
73576;DHT22;61859;49.204;8.140;2024-01-15T05:03:58;-1.80;95.40
73576;DHT22;61859;49.204;8.140;2024-01-15T05:06:23;-1.80;95.30
73576;DHT22;61859;49.204;8.140;2024-01-15T05:08:49;-1.90;95.20
73576;DHT22;61859;49.204;8.140;2024-01-15T05:11:15;-1.80;95.20
73576;DHT22;61859;49.204;8.140;2024-01-15T05:13:40;-2.00;95.40
73576;DHT22;61859;49.204;8.140;2024-01-15T05:16:06;-1.80;95.60
73576;DHT22;61859;49.204;8.140;2024-01-15T05:18:31;-1.70;95.70
73576;DHT22;61859;49.204;8.140;2024-01-15T05:20:57;-1.90;95.60
73576;DHT22;61859;49.204;8.140;2024-01-15T05:23:22;-2.00;95.60
73576;DHT22;61859;49.204;8.140;2024-01-15T05:25:48;-1.80;95.80
73576;DHT22;61859;49.204;8.140;2024-01-15T05:28:14;-1.90;95.90
73576;DHT22;61859;49.204;8.140;2024-01-15T05:30:39;-1.70;95.70
73576;DHT22;61859;49.204;8.140;2024-01-15T05:33:05;-1.80;95.90
73576;DHT22;61859;49.204;8.140;2024-01-15T05:35:32;-1.80;95.70
73576;DHT22;61859;49.204;8.140;2024-01-15T05:37:58;-1.80;95.80
73576;DHT22;61859;49.204;8.140;2024-01-15T05:40:24;-1.80;95.70
73576;DHT22;61859;49.204;8.140;2024-01-15T05:42:49;-1.80;95.80
73576;DHT22;61859;49.204;8.140;2024-01-15T05:45:15;-1.60;95.70
73576;DHT22;61859;49.204;8.140;2024-01-15T05:47:40;-1.70;95.70
73576;DHT22;61859;49.204;8.140;2024-01-15T05:50:06;-1.50;95.70
73576;DHT22;61859;49.204;8.140;2024-01-15T05:52:32;-1.50;95.80
73576;DHT22;61859;49.204;8.140;2024-01-15T05:54:57;-1.60;95.70
73576;DHT22;61859;49.204;8.140;2024-01-15T05:57:23;-1.60;95.70
73576;DHT22;61859;49.204;8.140;2024-01-15T05:59:49;-1.50;95.60
73576;DHT22;61859;49.204;8.140;2024-01-15T06:02:14;-1.60;95.50
73576;DHT22;61859;49.204;8.140;2024-01-15T06:04:40;-1.50;95.40
73576;DHT22;61859;49.204;8.140;2024-01-15T06:07:05;-1.50;95.20
73576;DHT22;61859;49.204;8.140;2024-01-15T06:09:31;-1.60;95.30
73576;DHT22;61859;49.204;8.140;2024-01-15T06:11:57;-1.30;95.20
73576;DHT22;61859;49.204;8.140;2024-01-15T06:14:22;-1.40;95.20
73576;DHT22;61859;49.204;8.140;2024-01-15T06:16:48;-1.40;95.20
73576;DHT22;61859;49.204;8.140;2024-01-15T06:19:13;-1.40;95.10
73576;DHT22;61859;49.204;8.140;2024-01-15T06:21:39;-1.40;95.00
73576;DHT22;61859;49.204;8.140;2024-01-15T06:24:04;-1.50;95.00
73576;DHT22;61859;49.204;8.140;2024-01-15T06:26:30;-1.40;94.80
73576;DHT22;61859;49.204;8.140;2024-01-15T06:28:55;-1.30;94.60
73576;DHT22;61859;49.204;8.140;2024-01-15T06:31:21;-1.20;94.60
73576;DHT22;61859;49.204;8.140;2024-01-15T06:33:46;-1.20;94.60
73576;DHT22;61859;49.204;8.140;2024-01-15T06:36:13;-1.30;94.60
73576;DHT22;61859;49.204;8.140;2024-01-15T06:38:39;-1.20;94.50
73576;DHT22;61859;49.204;8.140;2024-01-15T06:41:05;-1.10;94.70
73576;DHT22;61859;49.204;8.140;2024-01-15T06:43:31;-1.20;94.60
73576;DHT22;61859;49.204;8.140;2024-01-15T06:45:56;-1.10;94.70
73576;DHT22;61859;49.204;8.140;2024-01-15T06:48:22;-1.10;94.70
73576;DHT22;61859;49.204;8.140;2024-01-15T06:50:47;-1.10;94.70
73576;DHT22;61859;49.204;8.140;2024-01-15T06:53:13;-1.10;94.60
73576;DHT22;61859;49.204;8.140;2024-01-15T06:55:39;-1.10;94.60
73576;DHT22;61859;49.204;8.140;2024-01-15T06:58:04;-1.10;94.50
73576;DHT22;61859;49.204;8.140;2024-01-15T07:00:30;-1.10;94.50
73576;DHT22;61859;49.204;8.140;2024-01-15T07:02:55;-1.00;94.50
73576;DHT22;61859;49.204;8.140;2024-01-15T07:05:21;-1.10;94.40
73576;DHT22;61859;49.204;8.140;2024-01-15T07:07:47;-0.90;94.20
73576;DHT22;61859;49.204;8.140;2024-01-15T07:10:13;-1.10;94.20
73576;DHT22;61859;49.204;8.140;2024-01-15T07:12:39;-0.70;94.00
73576;DHT22;61859;49.204;8.140;2024-01-15T07:15:07;-0.90;94.10
73576;DHT22;61859;49.204;8.140;2024-01-15T07:17:33;-1.00;94.00
73576;DHT22;61859;49.204;8.140;2024-01-15T07:19:59;-0.80;93.80
73576;DHT22;61859;49.204;8.140;2024-01-15T07:22:24;-0.80;93.70
73576;DHT22;61859;49.204;8.140;2024-01-15T07:24:50;-0.80;93.70
73576;DHT22;61859;49.204;8.140;2024-01-15T07:27:15;-0.80;93.80
73576;DHT22;61859;49.204;8.140;2024-01-15T07:29:41;-0.70;93.90
73576;DHT22;61859;49.204;8.140;2024-01-15T07:32:08;-0.80;94.00
73576;DHT22;61859;49.204;8.140;2024-01-15T07:34:33;-0.90;94.30
73576;DHT22;61859;49.204;8.140;2024-01-15T07:36:59;-0.80;94.20
73576;DHT22;61859;49.204;8.140;2024-01-15T07:39:24;-0.60;94.20
73576;DHT22;61859;49.204;8.140;2024-01-15T07:41:53;-0.70;94.20
73576;DHT22;61859;49.204;8.140;2024-01-15T07:44:19;-0.50;94.10
73576;DHT22;61859;49.204;8.140;2024-01-15T07:46:47;-0.50;93.90
73576;DHT22;61859;49.204;8.140;2024-01-15T07:49:13;-0.50;94.00
73576;DHT22;61859;49.204;8.140;2024-01-15T07:51:39;-0.50;93.90
73576;DHT22;61859;49.204;8.140;2024-01-15T07:54:06;-0.50;93.90
73576;DHT22;61859;49.204;8.140;2024-01-15T07:56:32;-0.60;93.80
73576;DHT22;61859;49.204;8.140;2024-01-15T07:58:58;-0.60;93.70
73576;DHT22;61859;49.204;8.140;2024-01-15T08:01:24;-0.50;93.30
73576;DHT22;61859;49.204;8.140;2024-01-15T08:03:49;-0.50;93.50
73576;DHT22;61859;49.204;8.140;2024-01-15T08:06:15;-0.30;93.40
73576;DHT22;61859;49.204;8.140;2024-01-15T08:08:40;-0.50;93.50
73576;DHT22;61859;49.204;8.140;2024-01-15T08:11:06;-0.40;93.30
73576;DHT22;61859;49.204;8.140;2024-01-15T08:13:32;-0.30;93.40
73576;DHT22;61859;49.204;8.140;2024-01-15T08:15:58;-0.30;93.50
73576;DHT22;61859;49.204;8.140;2024-01-15T08:18:23;-0.40;93.70
73576;DHT22;61859;49.204;8.140;2024-01-15T08:20:49;-0.40;93.90
73576;DHT22;61859;49.204;8.140;2024-01-15T08:23:16;-0.30;93.80
73576;DHT22;61859;49.204;8.140;2024-01-15T08:25:42;-0.40;93.70
73576;DHT22;61859;49.204;8.140;2024-01-15T08:28:08;-0.20;93.90
73576;DHT22;61859;49.204;8.140;2024-01-15T08:30:33;-0.20;93.80
73576;DHT22;61859;49.204;8.140;2024-01-15T08:33:00;0.00;93.90
73576;DHT22;61859;49.204;8.140;2024-01-15T08:35:25;-0.30;94.00
73576;DHT22;61859;49.204;8.140;2024-01-15T08:37:54;-0.30;94.20
73576;DHT22;61859;49.204;8.140;2024-01-15T08:40:20;-0.30;94.50
73576;DHT22;61859;49.204;8.140;2024-01-15T08:42:46;-0.10;94.60
73576;DHT22;61859;49.204;8.140;2024-01-15T08:45:11;0.00;94.60
73576;DHT22;61859;49.204;8.140;2024-01-15T08:47:37;-0.20;94.50
73576;DHT22;61859;49.204;8.140;2024-01-15T08:50:04;0.00;94.50
73576;DHT22;61859;49.204;8.140;2024-01-15T08:52:29;0.00;94.50
73576;DHT22;61859;49.204;8.140;2024-01-15T08:54:58;0.10;94.50
73576;DHT22;61859;49.204;8.140;2024-01-15T08:57:23;-0.10;94.50
73576;DHT22;61859;49.204;8.140;2024-01-15T08:59:49;0.10;94.40
73576;DHT22;61859;49.204;8.140;2024-01-15T09:02:15;0.10;94.50
73576;DHT22;61859;49.204;8.140;2024-01-15T09:04:41;0.10;95.00
73576;DHT22;61859;49.204;8.140;2024-01-15T09:07:07;0.10;95.50
73576;DHT22;61859;49.204;8.140;2024-01-15T09:09:33;0.00;95.90
73576;DHT22;61859;49.204;8.140;2024-01-15T09:11:59;0.10;96.40
73576;DHT22;61859;49.204;8.140;2024-01-15T09:14:25;0.00;96.90
73576;DHT22;61859;49.204;8.140;2024-01-15T09:16:52;0.00;97.90
73576;DHT22;61859;49.204;8.140;2024-01-15T09:19:18;0.00;98.50
73576;DHT22;61859;49.204;8.140;2024-01-15T09:21:43;-0.10;99.10
73576;DHT22;61859;49.204;8.140;2024-01-15T09:24:09;0.00;99.40
73576;DHT22;61859;49.204;8.140;2024-01-15T09:26:34;-0.20;99.90
73576;DHT22;61859;49.204;8.140;2024-01-15T09:29:00;0.00;99.90
73576;DHT22;61859;49.204;8.140;2024-01-15T09:31:26;-0.10;99.90
73576;DHT22;61859;49.204;8.140;2024-01-15T09:33:52;-0.10;99.90
73576;DHT22;61859;49.204;8.140;2024-01-15T09:36:21;-0.10;99.90
73576;DHT22;61859;49.204;8.140;2024-01-15T09:38:48;-0.30;99.90
73576;DHT22;61859;49.204;8.140;2024-01-15T09:41:14;-0.30;99.90
73576;DHT22;61859;49.204;8.140;2024-01-15T09:43:40;-0.20;99.90
73576;DHT22;61859;49.204;8.140;2024-01-15T09:46:06;-0.20;99.90
73576;DHT22;61859;49.204;8.140;2024-01-15T09:48:31;-0.10;99.90
73576;DHT22;61859;49.204;8.140;2024-01-15T09:51:03;-0.10;99.90
73576;DHT22;61859;49.204;8.140;2024-01-15T09:53:29;0.00;99.90
73576;DHT22;61859;49.204;8.140;2024-01-15T09:55:56;0.00;99.90
73576;DHT22;61859;49.204;8.140;2024-01-15T09:58:22;-0.20;99.90
73576;DHT22;61859;49.204;8.140;2024-01-15T10:00:48;-0.10;99.90
73576;DHT22;61859;49.204;8.140;2024-01-15T10:03:15;-0.10;99.90
73576;DHT22;61859;49.204;8.140;2024-01-15T10:05:41;-0.10;99.90
73576;DHT22;61859;49.204;8.140;2024-01-15T10:08:07;0.00;99.90
73576;DHT22;61859;49.204;8.140;2024-01-15T10:10:33;0.00;99.90
73576;DHT22;61859;49.204;8.140;2024-01-15T10:13:01;0.00;99.90
73576;DHT22;61859;49.204;8.140;2024-01-15T10:15:27;0.00;99.90
73576;DHT22;61859;49.204;8.140;2024-01-15T10:17:52;0.00;99.90
73576;DHT22;61859;49.204;8.140;2024-01-15T10:20:18;0.20;99.90
73576;DHT22;61859;49.204;8.140;2024-01-15T10:22:45;0.20;99.90
73576;DHT22;61859;49.204;8.140;2024-01-15T10:25:14;0.40;99.90
73576;DHT22;61859;49.204;8.140;2024-01-15T10:27:40;0.30;99.90
73576;DHT22;61859;49.204;8.140;2024-01-15T10:30:09;0.30;99.90
73576;DHT22;61859;49.204;8.140;2024-01-15T10:32:35;0.40;99.90
73576;DHT22;61859;49.204;8.140;2024-01-15T10:35:01;0.50;99.90
73576;DHT22;61859;49.204;8.140;2024-01-15T10:37:26;0.50;99.90
73576;DHT22;61859;49.204;8.140;2024-01-15T10:39:52;0.30;99.90
73576;DHT22;61859;49.204;8.140;2024-01-15T10:42:18;0.30;99.90
73576;DHT22;61859;49.204;8.140;2024-01-15T10:44:44;0.30;99.90
73576;DHT22;61859;49.204;8.140;2024-01-15T10:47:12;0.30;99.90
73576;DHT22;61859;49.204;8.140;2024-01-15T10:49:38;0.20;99.90
73576;DHT22;61859;49.204;8.140;2024-01-15T10:52:04;0.40;99.90
73576;DHT22;61859;49.204;8.140;2024-01-15T10:54:29;0.40;99.90
73576;DHT22;61859;49.204;8.140;2024-01-15T10:56:58;0.30;99.90
73576;DHT22;61859;49.204;8.140;2024-01-15T10:59:24;0.30;99.90
73576;DHT22;61859;49.204;8.140;2024-01-15T11:01:51;0.50;99.90
73576;DHT22;61859;49.204;8.140;2024-01-15T11:04:20;0.60;99.90
73576;DHT22;61859;49.204;8.140;2024-01-15T11:06:50;0.60;99.90
73576;DHT22;61859;49.204;8.140;2024-01-15T11:09:16;0.50;99.90
73576;DHT22;61859;49.204;8.140;2024-01-15T11:11:44;0.60;99.90
73576;DHT22;61859;49.204;8.140;2024-01-15T11:14:10;0.70;99.90
73576;DHT22;61859;49.204;8.140;2024-01-15T11:16:55;0.40;99.90
73576;DHT22;61859;49.204;8.140;2024-01-15T11:19:45;0.60;99.90
73576;DHT22;61859;49.204;8.140;2024-01-15T11:24:57;0.40;99.90
73576;DHT22;61859;49.204;8.140;2024-01-15T11:27:43;0.40;99.90
73576;DHT22;61859;49.204;8.140;2024-01-15T11:30:10;0.40;99.90
73576;DHT22;61859;49.204;8.140;2024-01-15T11:32:36;0.50;99.90
73576;DHT22;61859;49.204;8.140;2024-01-15T11:35:02;0.70;99.90
73576;DHT22;61859;49.204;8.140;2024-01-15T11:40:18;0.60;99.90
73576;DHT22;61859;49.204;8.140;2024-01-15T11:42:48;0.60;99.90
73576;DHT22;61859;49.204;8.140;2024-01-15T11:45:19;0.70;99.90
73576;DHT22;61859;49.204;8.140;2024-01-15T11:48:11;0.80;99.90
73576;DHT22;61859;49.204;8.140;2024-01-15T11:50:40;0.80;99.90
73576;DHT22;61859;49.204;8.140;2024-01-15T11:53:17;0.80;99.90
73576;DHT22;61859;49.204;8.140;2024-01-15T11:55:46;0.80;99.90
73576;DHT22;61859;49.204;8.140;2024-01-15T11:58:14;0.90;99.90
73576;DHT22;61859;49.204;8.140;2024-01-15T12:00:44;1.00;99.40
73576;DHT22;61859;49.204;8.140;2024-01-15T12:03:10;1.00;99.50
73576;DHT22;61859;49.204;8.140;2024-01-15T12:05:37;1.00;99.40
73576;DHT22;61859;49.204;8.140;2024-01-15T12:08:03;1.20;99.10
73576;DHT22;61859;49.204;8.140;2024-01-15T12:10:33;1.00;98.80
73576;DHT22;61859;49.204;8.140;2024-01-15T12:15:32;1.10;99.10
73576;DHT22;61859;49.204;8.140;2024-01-15T12:18:02;1.20;99.20
73576;DHT22;61859;49.204;8.140;2024-01-15T12:20:31;1.40;98.80
73576;DHT22;61859;49.204;8.140;2024-01-15T12:22:58;1.10;98.30
73576;DHT22;61859;49.204;8.140;2024-01-15T12:25:24;1.20;98.00
73576;DHT22;61859;49.204;8.140;2024-01-15T12:27:50;1.20;98.00
73576;DHT22;61859;49.204;8.140;2024-01-15T12:30:16;1.50;97.30
73576;DHT22;61859;49.204;8.140;2024-01-15T12:32:43;1.40;97.10
73576;DHT22;61859;49.204;8.140;2024-01-15T12:35:10;1.50;96.70
73576;DHT22;61859;49.204;8.140;2024-01-15T12:37:36;1.50;96.10
73576;DHT22;61859;49.204;8.140;2024-01-15T12:40:03;1.70;95.10
73576;DHT22;61859;49.204;8.140;2024-01-15T12:42:32;1.60;94.30
73576;DHT22;61859;49.204;8.140;2024-01-15T12:44:57;1.60;94.50
73576;DHT22;61859;49.204;8.140;2024-01-15T12:47:23;1.50;94.10
73576;DHT22;61859;49.204;8.140;2024-01-15T12:49:51;1.30;94.20
73576;DHT22;61859;49.204;8.140;2024-01-15T12:52:19;1.60;94.20
73576;DHT22;61859;49.204;8.140;2024-01-15T12:54:47;1.50;93.90
73576;DHT22;61859;49.204;8.140;2024-01-15T12:57:13;1.40;93.80
73576;DHT22;61859;49.204;8.140;2024-01-15T12:59:38;1.50;93.30
73576;DHT22;61859;49.204;8.140;2024-01-15T13:02:04;1.40;92.80
73576;DHT22;61859;49.204;8.140;2024-01-15T13:04:30;1.80;92.20
73576;DHT22;61859;49.204;8.140;2024-01-15T13:06:55;1.70;92.50
73576;DHT22;61859;49.204;8.140;2024-01-15T13:09:21;1.80;92.70
73576;DHT22;61859;49.204;8.140;2024-01-15T13:11:46;1.90;92.30
73576;DHT22;61859;49.204;8.140;2024-01-15T13:14:12;1.80;92.90
73576;DHT22;61859;49.204;8.140;2024-01-15T13:16:39;1.70;92.70
73576;DHT22;61859;49.204;8.140;2024-01-15T13:19:07;1.80;92.50
73576;DHT22;61859;49.204;8.140;2024-01-15T13:21:33;1.60;92.20
73576;DHT22;61859;49.204;8.140;2024-01-15T13:23:59;1.70;92.40
73576;DHT22;61859;49.204;8.140;2024-01-15T13:26:24;1.80;92.00
73576;DHT22;61859;49.204;8.140;2024-01-15T13:28:50;1.70;92.00
73576;DHT22;61859;49.204;8.140;2024-01-15T13:31:15;1.70;92.10
73576;DHT22;61859;49.204;8.140;2024-01-15T13:33:41;1.90;91.80
73576;DHT22;61859;49.204;8.140;2024-01-15T13:36:07;2.10;90.40
73576;DHT22;61859;49.204;8.140;2024-01-15T13:38:38;2.10;89.10
73576;DHT22;61859;49.204;8.140;2024-01-15T13:41:04;2.10;89.30
73576;DHT22;61859;49.204;8.140;2024-01-15T13:43:31;2.20;88.40
73576;DHT22;61859;49.204;8.140;2024-01-15T13:45:57;2.20;88.50
73576;DHT22;61859;49.204;8.140;2024-01-15T13:48:24;2.60;88.30
73576;DHT22;61859;49.204;8.140;2024-01-15T13:50:49;2.70;87.00
73576;DHT22;61859;49.204;8.140;2024-01-15T13:53:16;2.80;87.10
73576;DHT22;61859;49.204;8.140;2024-01-15T13:55:42;3.00;85.50
73576;DHT22;61859;49.204;8.140;2024-01-15T13:58:07;2.80;86.20
73576;DHT22;61859;49.204;8.140;2024-01-15T14:00:33;2.70;86.40
73576;DHT22;61859;49.204;8.140;2024-01-15T14:02:58;2.60;86.70
73576;DHT22;61859;49.204;8.140;2024-01-15T14:05:24;2.20;87.00
73576;DHT22;61859;49.204;8.140;2024-01-15T14:07:50;2.40;87.80
73576;DHT22;61859;49.204;8.140;2024-01-15T14:10:15;2.00;88.90
73576;DHT22;61859;49.204;8.140;2024-01-15T14:12:41;2.10;88.60
73576;DHT22;61859;49.204;8.140;2024-01-15T14:15:07;2.10;88.80
73576;DHT22;61859;49.204;8.140;2024-01-15T14:17:32;1.90;89.00
73576;DHT22;61859;49.204;8.140;2024-01-15T14:19:58;2.00;89.50
73576;DHT22;61859;49.204;8.140;2024-01-15T14:22:24;1.90;89.60
73576;DHT22;61859;49.204;8.140;2024-01-15T14:24:50;2.10;89.10
73576;DHT22;61859;49.204;8.140;2024-01-15T14:27:16;2.40;88.70
73576;DHT22;61859;49.204;8.140;2024-01-15T14:29:42;2.80;86.60
73576;DHT22;61859;49.204;8.140;2024-01-15T14:32:07;2.70;85.60
73576;DHT22;61859;49.204;8.140;2024-01-15T14:34:33;2.80;85.90
73576;DHT22;61859;49.204;8.140;2024-01-15T14:37:01;3.10;85.50
73576;DHT22;61859;49.204;8.140;2024-01-15T14:39:27;2.90;85.10
73576;DHT22;61859;49.204;8.140;2024-01-15T14:41:52;2.80;85.50
73576;DHT22;61859;49.204;8.140;2024-01-15T14:44:18;2.50;86.20
73576;DHT22;61859;49.204;8.140;2024-01-15T14:46:43;2.40;86.40
73576;DHT22;61859;49.204;8.140;2024-01-15T14:49:09;2.20;86.90
73576;DHT22;61859;49.204;8.140;2024-01-15T14:51:34;2.40;87.10
73576;DHT22;61859;49.204;8.140;2024-01-15T14:54:00;2.20;87.30
73576;DHT22;61859;49.204;8.140;2024-01-15T14:56:26;2.20;86.40
73576;DHT22;61859;49.204;8.140;2024-01-15T14:58:51;2.50;86.80
73576;DHT22;61859;49.204;8.140;2024-01-15T15:01:17;2.70;86.30
73576;DHT22;61859;49.204;8.140;2024-01-15T15:03:42;2.80;85.90
73576;DHT22;61859;49.204;8.140;2024-01-15T15:06:09;2.90;85.00
73576;DHT22;61859;49.204;8.140;2024-01-15T15:08:35;3.00;84.70
73576;DHT22;61859;49.204;8.140;2024-01-15T15:11:02;2.90;84.20
73576;DHT22;61859;49.204;8.140;2024-01-15T15:13:27;2.90;84.70
73576;DHT22;61859;49.204;8.140;2024-01-15T15:15:53;2.80;84.30
73576;DHT22;61859;49.204;8.140;2024-01-15T15:18:20;2.50;84.60
73576;DHT22;61859;49.204;8.140;2024-01-15T15:20:47;2.60;84.90
73576;DHT22;61859;49.204;8.140;2024-01-15T15:23:12;2.30;85.20
73576;DHT22;61859;49.204;8.140;2024-01-15T15:25:38;2.40;86.00
73576;DHT22;61859;49.204;8.140;2024-01-15T15:28:04;2.10;86.00
73576;DHT22;61859;49.204;8.140;2024-01-15T15:30:33;2.00;86.30
73576;DHT22;61859;49.204;8.140;2024-01-15T15:32:58;1.70;87.10
73576;DHT22;61859;49.204;8.140;2024-01-15T15:35:24;1.60;86.90
73576;DHT22;61859;49.204;8.140;2024-01-15T15:37:50;1.70;87.50
73576;DHT22;61859;49.204;8.140;2024-01-15T15:40:15;1.50;87.90